This is the latest recevied weather packets stored in our database for station/object OK1FET-17. If no packets are shown the sender has not sent any weather packets the latest 10 day(s).
| Time | Temp. | Humidity | Pressure | Rain* | Wind** | Luminosity | Snow |
|---|---|---|---|---|---|---|---|
| 1788376746 | 16.67° C | 79% | 1025 hPa | - | - | - | - |
| 1788376142 | 16.67° C | 79% | 1024.9 hPa | - | - | - | - |
| 1788375538 | 16.11° C | 79% | 1024.7 hPa | - | - | - | - |
| 1788374329 | 16.11° C | 81% | 1024.7 hPa | - | - | - | - |
| 1788373725 | 16.11° C | 80% | 1024.8 hPa | - | - | - | - |
| 1788373120 | 17.22° C | 75% | 1024.8 hPa | - | - | - | - |
| 1788372516 | 16.67° C | 76% | 1024.4 hPa | - | - | - | - |
| 1788371911 | 16.11° C | 81% | 1024.3 hPa | - | - | - | - |
| 1788371307 | 16.67° C | 83% | 1024.4 hPa | - | - | - | - |
| 1788370702 | 17.22° C | 79% | 1024.4 hPa | - | - | - | - |
| 1788370098 | 17.22° C | 74% | 1024.3 hPa | - | - | - | - |
| 1788369493 | 17.22° C | 68% | 1024.6 hPa | - | - | - | - |
| 1788368888 | 17.78° C | 67% | 1024.8 hPa | - | - | - | - |
| 1788346485 | 23.89° C | 65% | 1052.5 hPa | - | - | - | - |
| 1788345648 | 30° C | 39% | 1052.6 hPa | - | - | - | - |
| 1788345041 | 29.44° C | 47% | 1052.6 hPa | - | - | - | - |
| 1788344434 | 27.22° C | 43% | 1052.6 hPa | - | - | - | - |
| 1788343828 | 27.78° C | 47% | 1052.6 hPa | - | - | - | - |
| 1788343221 | 29.44° C | 40% | 1052.7 hPa | - | - | - | - |
| 1788342615 | 28.89° C | 42% | 1052.9 hPa | - | - | - | - |
| 1788342008 | 31.11° C | 43% | 1052.9 hPa | - | - | - | - |
| 1788341401 | 34.44° C | 32% | 1053.1 hPa | - | - | - | - |
| 1788339579 | 24.44° C | 62% | 1053.1 hPa | - | - | - | - |
| 1788281821 | 23.89° C | 65% | 1051 hPa | - | - | - | - |
* Rain since midnight (hover to see other rain measurements)
** Current wind speed in m/s (hover to see current wind gust speed)